sensor_id;sensor_type;location;lat;lon;timestamp;pressure;altitude;pressure_sealevel;temperature;humidity
65997;BME280;52765;52.258;21.052;2022-12-07T00:01:28;99918.69;;;3.37;100.00
65997;BME280;52765;52.258;21.052;2022-12-07T00:03:58;99910.94;;;3.33;100.00
65997;BME280;52765;52.258;21.052;2022-12-07T00:06:30;99907.69;;;3.30;100.00
65997;BME280;52765;52.258;21.052;2022-12-07T00:08:56;99906.94;;;3.28;100.00
65997;BME280;52765;52.258;21.052;2022-12-07T00:11:23;99897.63;;;3.33;100.00
65997;BME280;52765;52.258;21.052;2022-12-07T00:13:57;99899.66;;;3.41;100.00
65997;BME280;52765;52.258;21.052;2022-12-07T00:16:26;99896.06;;;3.42;100.00
65997;BME280;52765;52.258;21.052;2022-12-07T00:18:52;99893.25;;;3.44;100.00
65997;BME280;52765;52.258;21.052;2022-12-07T00:21:21;99897.47;;;3.46;100.00
65997;BME280;52765;52.258;21.052;2022-12-07T00:23:49;99899.19;;;3.36;100.00
65997;BME280;52765;52.258;21.052;2022-12-07T00:26:20;99886.00;;;3.34;100.00
65997;BME280;52765;52.258;21.052;2022-12-07T00:28:51;99884.78;;;3.39;100.00
65997;BME280;52765;52.258;21.052;2022-12-07T00:31:18;99869.91;;;3.36;100.00
65997;BME280;52765;52.258;21.052;2022-12-07T00:33:44;99879.34;;;3.40;100.00
65997;BME280;52765;52.258;21.052;2022-12-07T00:36:14;99875.97;;;3.38;100.00
65997;BME280;52765;52.258;21.052;2022-12-07T00:38:40;99869.66;;;3.39;100.00
65997;BME280;52765;52.258;21.052;2022-12-07T00:41:12;99885.75;;;3.38;100.00
65997;BME280;52765;52.258;21.052;2022-12-07T00:43:38;99875.84;;;3.28;100.00
65997;BME280;52765;52.258;21.052;2022-12-07T00:46:03;99877.75;;;3.38;100.00
65997;BME280;52765;52.258;21.052;2022-12-07T00:48:29;99868.59;;;3.42;100.00
65997;BME280;52765;52.258;21.052;2022-12-07T00:50:56;99871.25;;;3.42;100.00
65997;BME280;52765;52.258;21.052;2022-12-07T00:53:21;99872.31;;;3.39;100.00
65997;BME280;52765;52.258;21.052;2022-12-07T00:55:47;99882.00;;;3.40;100.00
65997;BME280;52765;52.258;21.052;2022-12-07T00:58:12;99866.03;;;3.29;100.00
65997;BME280;52765;52.258;21.052;2022-12-07T01:00:42;99869.53;;;3.41;100.00
65997;BME280;52765;52.258;21.052;2022-12-07T01:03:09;99872.81;;;3.33;100.00
65997;BME280;52765;52.258;21.052;2022-12-07T01:05:35;99875.22;;;3.36;100.00
65997;BME280;52765;52.258;21.052;2022-12-07T01:08:01;99876.94;;;3.37;100.00
65997;BME280;52765;52.258;21.052;2022-12-07T01:10:27;99864.69;;;3.34;100.00
65997;BME280;52765;52.258;21.052;2022-12-07T01:12:53;99870.13;;;3.44;100.00
65997;BME280;52765;52.258;21.052;2022-12-07T01:15:18;99850.28;;;3.48;100.00
65997;BME280;52765;52.258;21.052;2022-12-07T01:17:44;99869.03;;;3.58;100.00
65997;BME280;52765;52.258;21.052;2022-12-07T01:20:10;99872.44;;;3.60;100.00
65997;BME280;52765;52.258;21.052;2022-12-07T01:22:39;99861.78;;;3.60;100.00
65997;BME280;52765;52.258;21.052;2022-12-07T01:25:06;99870.13;;;3.56;100.00
65997;BME280;52765;52.258;21.052;2022-12-07T01:27:33;99861.78;;;3.60;100.00
65997;BME280;52765;52.258;21.052;2022-12-07T01:29:59;99869.28;;;3.66;100.00
65997;BME280;52765;52.258;21.052;2022-12-07T01:32:25;99868.94;;;3.60;100.00
65997;BME280;52765;52.258;21.052;2022-12-07T01:34:50;99871.31;;;3.63;100.00
65997;BME280;52765;52.258;21.052;2022-12-07T01:37:15;99870.13;;;3.67;100.00
65997;BME280;52765;52.258;21.052;2022-12-07T01:39:41;99863.31;;;3.74;100.00
65997;BME280;52765;52.258;21.052;2022-12-07T01:42:10;99856.66;;;3.68;100.00
65997;BME280;52765;52.258;21.052;2022-12-07T01:47:40;99862.59;;;3.61;100.00
65997;BME280;52765;52.258;21.052;2022-12-07T01:50:06;99858.47;;;3.68;100.00
65997;BME280;52765;52.258;21.052;2022-12-07T01:52:33;99862.47;;;3.74;100.00
65997;BME280;52765;52.258;21.052;2022-12-07T01:55:04;99865.13;;;3.74;100.00
65997;BME280;52765;52.258;21.052;2022-12-07T01:57:33;99853.63;;;3.73;100.00
65997;BME280;52765;52.258;21.052;2022-12-07T02:00:00;99860.06;;;3.70;100.00
65997;BME280;52765;52.258;21.052;2022-12-07T02:02:28;99851.13;;;3.60;100.00
65997;BME280;52765;52.258;21.052;2022-12-07T02:04:59;99852.06;;;3.59;100.00
65997;BME280;52765;52.258;21.052;2022-12-07T02:07:25;99842.78;;;3.54;100.00
65997;BME280;52765;52.258;21.052;2022-12-07T02:09:52;99853.66;;;3.62;100.00
65997;BME280;52765;52.258;21.052;2022-12-07T02:12:17;99852.78;;;3.61;100.00
65997;BME280;52765;52.258;21.052;2022-12-07T02:14:44;99862.50;;;3.51;100.00
65997;BME280;52765;52.258;21.052;2022-12-07T02:17:22;99843.50;;;3.44;100.00
65997;BME280;52765;52.258;21.052;2022-12-07T02:20:11;99854.38;;;3.52;100.00
65997;BME280;52765;52.258;21.052;2022-12-07T02:22:54;99845.69;;;3.50;100.00
65997;BME280;52765;52.258;21.052;2022-12-07T02:28:37;99845.94;;;3.47;100.00
65997;BME280;52765;52.258;21.052;2022-12-07T02:31:11;99844.97;;;3.37;100.00
65997;BME280;52765;52.258;21.052;2022-12-07T02:33:50;99850.06;;;3.40;100.00
65997;BME280;52765;52.258;21.052;2022-12-07T02:36:29;99846.75;;;3.48;100.00
65997;BME280;52765;52.258;21.052;2022-12-07T02:38:56;99846.88;;;3.46;100.00
65997;BME280;52765;52.258;21.052;2022-12-07T02:41:38;99836.75;;;3.51;100.00
65997;BME280;52765;52.258;21.052;2022-12-07T02:44:10;99831.91;;;3.45;100.00
65997;BME280;52765;52.258;21.052;2022-12-07T02:46:43;99836.28;;;3.35;100.00
65997;BME280;52765;52.258;21.052;2022-12-07T02:49:10;99842.09;;;3.29;100.00
65997;BME280;52765;52.258;21.052;2022-12-07T02:51:39;99841.38;;;3.27;100.00
65997;BME280;52765;52.258;21.052;2022-12-07T02:54:14;99834.94;;;3.29;100.00
65997;BME280;52765;52.258;21.052;2022-12-07T03:04:52;99837.00;;;3.14;100.00
65997;BME280;52765;52.258;21.052;2022-12-07T03:12:57;99832.53;;;2.81;100.00
65997;BME280;52765;52.258;21.052;2022-12-07T03:17:54;99831.56;;;2.82;100.00
65997;BME280;52765;52.258;21.052;2022-12-07T03:20:22;99826.63;;;2.89;100.00
65997;BME280;52765;52.258;21.052;2022-12-07T03:22:57;99817.06;;;2.97;100.00
65997;BME280;52765;52.258;21.052;2022-12-07T03:25:24;99819.84;;;2.96;100.00
65997;BME280;52765;52.258;21.052;2022-12-07T03:27:57;99824.06;;;2.99;100.00
65997;BME280;52765;52.258;21.052;2022-12-07T03:30:38;99812.69;;;3.08;100.00
65997;BME280;52765;52.258;21.052;2022-12-07T03:33:39;99816.94;;;3.10;100.00
65997;BME280;52765;52.258;21.052;2022-12-07T03:36:29;99806.75;;;3.04;100.00
65997;BME280;52765;52.258;21.052;2022-12-07T03:39:22;99812.69;;;3.08;100.00
65997;BME280;52765;52.258;21.052;2022-12-07T03:41:54;99804.81;;;3.06;100.00
65997;BME280;52765;52.258;21.052;2022-12-07T03:44:21;99806.53;;;3.07;100.00
65997;BME280;52765;52.258;21.052;2022-12-07T03:53:14;99800.50;;;2.94;100.00
65997;BME280;52765;52.258;21.052;2022-12-07T03:55:43;99797.22;;;2.90;100.00
65997;BME280;52765;52.258;21.052;2022-12-07T03:58:12;99795.66;;;2.99;100.00
65997;BME280;52765;52.258;21.052;2022-12-07T04:00:41;99800.97;;;2.99;100.00
65997;BME280;52765;52.258;21.052;2022-12-07T04:03:06;99790.81;;;2.93;100.00
65997;BME280;52765;52.258;21.052;2022-12-07T04:05:32;99789.84;;;2.83;100.00
65997;BME280;52765;52.258;21.052;2022-12-07T04:07:57;99796.63;;;2.87;100.00
65997;BME280;52765;52.258;21.052;2022-12-07T04:10:23;99798.06;;;2.91;100.00
65997;BME280;52765;52.258;21.052;2022-12-07T04:12:48;99798.19;;;2.89;100.00
65997;BME280;52765;52.258;21.052;2022-12-07T04:15:14;99793.94;;;2.98;100.00
65997;BME280;52765;52.258;21.052;2022-12-07T04:17:39;99793.94;;;2.98;100.00
65997;BME280;52765;52.258;21.052;2022-12-07T04:20:05;99790.56;;;2.96;100.00
65997;BME280;52765;52.258;21.052;2022-12-07T04:22:31;99789.00;;;2.93;100.00
65997;BME280;52765;52.258;21.052;2022-12-07T04:24:56;99789.84;;;2.83;100.00
65997;BME280;52765;52.258;21.052;2022-12-07T04:27:22;99789.38;;;2.89;100.00
65997;BME280;52765;52.258;21.052;2022-12-07T04:29:47;99787.78;;;2.86;100.00
65997;BME280;52765;52.258;21.052;2022-12-07T04:32:13;99788.25;;;2.91;100.00
65997;BME280;52765;52.258;21.052;2022-12-07T04:34:38;99794.44;;;2.92;100.00
65997;BME280;52765;52.258;21.052;2022-12-07T04:37:04;99785.47;;;2.93;100.00
65997;BME280;52765;52.258;21.052;2022-12-07T04:39:32;99787.41;;;2.91;100.00
65997;BME280;52765;52.258;21.052;2022-12-07T04:41:59;99786.94;;;2.97;100.00
65997;BME280;52765;52.258;21.052;2022-12-07T04:44:25;99780.78;;;2.96;100.00
65997;BME280;52765;52.258;21.052;2022-12-07T04:46:52;99781.16;;;2.92;100.00
65997;BME280;52765;52.258;21.052;2022-12-07T04:49:18;99788.78;;;2.96;100.00
65997;BME280;52765;52.258;21.052;2022-12-07T04:51:45;99791.91;;;2.90;100.00
65997;BME280;52765;52.258;21.052;2022-12-07T04:54:11;99793.72;;;2.90;100.00
65997;BME280;52765;52.258;21.052;2022-12-07T04:56:40;99785.34;;;2.94;100.00
65997;BME280;52765;52.258;21.052;2022-12-07T04:59:06;99780.28;;;2.91;100.00
65997;BME280;52765;52.258;21.052;2022-12-07T05:01:33;99783.09;;;2.90;100.00
65997;BME280;52765;52.258;21.052;2022-12-07T05:03:58;99778.38;;;2.93;100.00
65997;BME280;52765;52.258;21.052;2022-12-07T05:06:24;99788.13;;;2.93;100.00
65997;BME280;52765;52.258;21.052;2022-12-07T05:08:50;99770.97;;;2.97;100.00
65997;BME280;52765;52.258;21.052;2022-12-07T05:11:16;99768.56;;;2.94;100.00
65997;BME280;52765;52.258;21.052;2022-12-07T05:14:02;99765.53;;;2.87;100.00
65997;BME280;52765;52.258;21.052;2022-12-07T05:16:27;99763.97;;;2.85;100.00
65997;BME280;52765;52.258;21.052;2022-12-07T05:18:53;99767.47;;;2.63;100.00
65997;BME280;52765;52.258;21.052;2022-12-07T05:21:18;99762.88;;;2.53;100.00
65997;BME280;52765;52.258;21.052;2022-12-07T05:23:44;99761.06;;;2.54;100.00
65997;BME280;52765;52.258;21.052;2022-12-07T05:26:09;99751.25;;;2.43;100.00
65997;BME280;52765;52.258;21.052;2022-12-07T05:28:35;99759.88;;;2.47;100.00
65997;BME280;52765;52.258;21.052;2022-12-07T05:31:00;99765.06;;;2.48;100.00
65997;BME280;52765;52.258;21.052;2022-12-07T05:33:26;99761.78;;;2.45;100.00
65997;BME280;52765;52.258;21.052;2022-12-07T05:35:51;99768.06;;;2.44;100.00
65997;BME280;52765;52.258;21.052;2022-12-07T05:38:17;99760.22;;;2.42;100.00
65997;BME280;52765;52.258;21.052;2022-12-07T05:40:42;99760.69;;;2.47;100.00
65997;BME280;52765;52.258;21.052;2022-12-07T05:43:08;99762.63;;;2.45;100.00
65997;BME280;52765;52.258;21.052;2022-12-07T05:45:33;99760.81;;;2.46;100.00
65997;BME280;52765;52.258;21.052;2022-12-07T05:47:58;99768.22;;;2.53;100.00
65997;BME280;52765;52.258;21.052;2022-12-07T05:50:24;99771.69;;;2.54;100.00
65997;BME280;52765;52.258;21.052;2022-12-07T05:52:50;99770.59;;;2.56;100.00
65997;BME280;52765;52.258;21.052;2022-12-07T05:55:15;99772.66;;;2.53;100.00
65997;BME280;52765;52.258;21.052;2022-12-07T05:57:41;99771.69;;;2.54;100.00
65997;BME280;52765;52.258;21.052;2022-12-07T06:00:26;99767.72;;;2.48;100.00
65997;BME280;52765;52.258;21.052;2022-12-07T06:02:52;99767.22;;;2.54;100.00
65997;BME280;52765;52.258;21.052;2022-12-07T06:05:17;99771.22;;;2.60;100.00
65997;BME280;52765;52.258;21.052;2022-12-07T06:07:42;99762.50;;;2.58;100.00
65997;BME280;52765;52.258;21.052;2022-12-07T06:10:08;99771.34;;;2.58;100.00
65997;BME280;52765;52.258;21.052;2022-12-07T06:12:34;99769.75;;;2.56;100.00
65997;BME280;52765;52.258;21.052;2022-12-07T06:14:59;99771.69;;;2.54;100.00
65997;BME280;52765;52.258;21.052;2022-12-07T06:17:25;99762.88;;;2.53;100.00
65997;BME280;52765;52.258;21.052;2022-12-07T06:19:51;99776.78;;;2.57;100.00
65997;BME280;52765;52.258;21.052;2022-12-07T06:22:16;99760.72;;;2.58;100.00
65997;BME280;52765;52.258;21.052;2022-12-07T06:24:43;99765.53;;;2.53;100.00
65997;BME280;52765;52.258;21.052;2022-12-07T06:27:10;99760.47;;;2.50;100.00
65997;BME280;52765;52.258;21.052;2022-12-07T06:29:35;99767.09;;;2.56;100.00
65997;BME280;52765;52.258;21.052;2022-12-07T06:32:01;99765.91;;;2.60;100.00
65997;BME280;52765;52.258;21.052;2022-12-07T06:34:27;99735.19;;;2.45;100.00
65997;BME280;52765;52.258;21.052;2022-12-07T06:36:53;99762.50;;;2.58;100.00
65997;BME280;52765;52.258;21.052;2022-12-07T06:39:25;99755.16;;;2.50;100.00
65997;BME280;52765;52.258;21.052;2022-12-07T06:41:51;99758.63;;;2.51;100.00
65997;BME280;52765;52.258;21.052;2022-12-07T06:44:17;99758.16;;;2.46;100.00
65997;BME280;52765;52.258;21.052;2022-12-07T06:46:44;99759.97;;;2.45;100.00
65997;BME280;52765;52.258;21.052;2022-12-07T06:49:10;99751.78;;;2.48;100.00
65997;BME280;52765;52.258;21.052;2022-12-07T06:51:35;99759.75;;;2.48;100.00
65997;BME280;52765;52.258;21.052;2022-12-07T06:54:03;99753.56;;;2.48;100.00
65997;BME280;52765;52.258;21.052;2022-12-07T06:56:29;99755.38;;;2.47;100.00
65997;BME280;52765;52.258;21.052;2022-12-07T06:58:54;99752.47;;;2.39;100.00
65997;BME280;52765;52.258;21.052;2022-12-07T07:01:20;99755.97;;;2.39;100.00
65997;BME280;52765;52.258;21.052;2022-12-07T07:03:46;99758.38;;;2.43;100.00
65997;BME280;52765;52.258;21.052;2022-12-07T07:06:12;99757.56;;;2.42;100.00
65997;BME280;52765;52.258;21.052;2022-12-07T07:08:39;99762.03;;;2.42;100.00
65997;BME280;52765;52.258;21.052;2022-12-07T07:11:06;99768.53;;;2.37;100.00
65997;BME280;52765;52.258;21.052;2022-12-07T07:13:32;99760.19;;;2.31;100.00
65997;BME280;52765;52.258;21.052;2022-12-07T07:15:57;99759.47;;;2.29;100.00
65997;BME280;52765;52.258;21.052;2022-12-07T07:18:23;99753.66;;;2.24;100.00
65997;BME280;52765;52.258;21.052;2022-12-07T07:20:53;99747.94;;;2.06;100.00
65997;BME280;52765;52.258;21.052;2022-12-07T07:23:19;99753.28;;;2.17;100.00
65997;BME280;52765;52.258;21.052;2022-12-07T07:25:45;99764.28;;;2.24;100.00
65997;BME280;52765;52.258;21.052;2022-12-07T07:28:11;99754.84;;;2.19;100.00
65997;BME280;52765;52.258;21.052;2022-12-07T07:30:36;99761.16;;;2.18;100.00
65997;BME280;52765;52.258;21.052;2022-12-07T07:33:03;99764.75;;;2.17;100.00
65997;BME280;52765;52.258;21.052;2022-12-07T07:35:32;99756.31;;;2.24;100.00
65997;BME280;52765;52.258;21.052;2022-12-07T07:37:58;99764.19;;;2.25;100.00
65997;BME280;52765;52.258;21.052;2022-12-07T07:40:24;99772.66;;;2.30;100.00
65997;BME280;52765;52.258;21.052;2022-12-07T07:42:53;99758.75;;;2.38;100.00
65997;BME280;52765;52.258;21.052;2022-12-07T07:45:21;99767.69;;;2.37;100.00
65997;BME280;52765;52.258;21.052;2022-12-07T07:47:47;99756.94;;;2.27;100.00
65997;BME280;52765;52.258;21.052;2022-12-07T07:50:13;99763.44;;;2.23;100.00
65997;BME280;52765;52.258;21.052;2022-12-07T07:52:38;99767.56;;;2.27;100.00
65997;BME280;52765;52.258;21.052;2022-12-07T07:55:05;99756.56;;;2.32;100.00
65997;BME280;52765;52.258;21.052;2022-12-07T07:57:30;99765.03;;;2.37;100.00
65997;BME280;52765;52.258;21.052;2022-12-07T07:59:56;99760.44;;;2.39;100.00
65997;BME280;52765;52.258;21.052;2022-12-07T08:02:21;99767.59;;;2.38;100.00
65997;BME280;52765;52.258;21.052;2022-12-07T08:04:47;99760.06;;;2.32;100.00
65997;BME280;52765;52.258;21.052;2022-12-07T08:07:14;99751.75;;;2.37;100.00
65997;BME280;52765;52.258;21.052;2022-12-07T08:09:39;99766.47;;;2.41;100.00
65997;BME280;52765;52.258;21.052;2022-12-07T08:12:05;99761.31;;;2.51;100.00
65997;BME280;52765;52.258;21.052;2022-12-07T08:14:31;99761.16;;;2.41;100.00
65997;BME280;52765;52.258;21.052;2022-12-07T08:16:56;99770.97;;;2.40;100.00
65997;BME280;52765;52.258;21.052;2022-12-07T08:19:22;99765.75;;;2.39;100.00
65997;BME280;52765;52.258;21.052;2022-12-07T08:21:48;99759.97;;;2.45;100.00
65997;BME280;52765;52.258;21.052;2022-12-07T08:24:13;99773.41;;;2.55;100.00
65997;BME280;52765;52.258;21.052;2022-12-07T08:26:40;99769.16;;;2.52;100.00
65997;BME280;52765;52.258;21.052;2022-12-07T08:29:05;99774.94;;;2.46;100.00
65997;BME280;52765;52.258;21.052;2022-12-07T08:31:30;99779.53;;;2.44;100.00
65997;BME280;52765;52.258;21.052;2022-12-07T08:33:56;99782.56;;;2.51;100.00
65997;BME280;52765;52.258;21.052;2022-12-07T08:36:22;99777.84;;;2.43;100.00
65997;BME280;52765;52.258;21.052;2022-12-07T08:38:48;99782.19;;;2.44;100.00
65997;BME280;52765;52.258;21.052;2022-12-07T08:41:14;99774.09;;;2.34;100.00
65997;BME280;52765;52.258;21.052;2022-12-07T08:43:40;99782.56;;;2.39;100.00
65997;BME280;52765;52.258;21.052;2022-12-07T08:46:18;99770.84;;;2.42;100.00
65997;BME280;52765;52.258;21.052;2022-12-07T08:48:53;99789.94;;;2.47;100.00
65997;BME280;52765;52.258;21.052;2022-12-07T08:51:21;99783.66;;;2.37;100.00
65997;BME280;52765;52.258;21.052;2022-12-07T08:53:48;99775.91;;;2.34;100.00
65997;BME280;52765;52.258;21.052;2022-12-07T08:56:15;99785.09;;;2.41;100.00
65997;BME280;52765;52.258;21.052;2022-12-07T08:58:40;99781.59;;;2.40;100.00
65997;BME280;52765;52.258;21.052;2022-12-07T09:01:06;99778.94;;;2.40;100.00
65997;BME280;52765;52.258;21.052;2022-12-07T09:03:32;99785.22;;;2.39;100.00
65997;BME280;52765;52.258;21.052;2022-12-07T09:05:58;99775.31;;;2.53;100.00
65997;BME280;52765;52.258;21.052;2022-12-07T09:08:31;99776.66;;;2.58;100.00
65997;BME280;52765;52.258;21.052;2022-12-07T09:10:58;99769.06;;;2.65;100.00
65997;BME280;52765;52.258;21.052;2022-12-07T09:13:23;99772.44;;;2.78;100.00
65997;BME280;52765;52.258;21.052;2022-12-07T09:15:49;99764.34;;;2.80;100.00
65997;BME280;52765;52.258;21.052;2022-12-07T09:18:14;99768.78;;;2.91;100.00
65997;BME280;52765;52.258;21.052;2022-12-07T09:20:41;99761.19;;;2.86;100.00
65997;BME280;52765;52.258;21.052;2022-12-07T09:23:07;99755.38;;;3.04;100.00
65997;BME280;52765;52.258;21.052;2022-12-07T09:25:33;99755.38;;;3.04;100.00
65997;BME280;52765;52.258;21.052;2022-12-07T09:27:58;99756.22;;;3.04;100.00
65997;BME280;52765;52.258;21.052;2022-12-07T09:30:25;99755.13;;;3.07;100.00
65997;BME280;52765;52.258;21.052;2022-12-07T09:32:54;99758.84;;;3.27;100.00
65997;BME280;52765;52.258;21.052;2022-12-07T09:35:21;99759.44;;;3.30;100.00
65997;BME280;52765;52.258;21.052;2022-12-07T09:37:56;99753.41;;;3.28;100.00
65997;BME280;52765;52.258;21.052;2022-12-07T09:40:23;99741.81;;;3.18;100.00
65997;BME280;52765;52.258;21.052;2022-12-07T09:42:51;99745.16;;;3.31;100.00
65997;BME280;52765;52.258;21.052;2022-12-07T09:45:25;99746.47;;;3.37;100.00
65997;BME280;52765;52.258;21.052;2022-12-07T09:47:52;99749.38;;;3.34;100.00
65997;BME280;52765;52.258;21.052;2022-12-07T09:50:26;99747.31;;;3.26;100.00
65997;BME280;52765;52.258;21.052;2022-12-07T09:52:52;99755.16;;;3.39;100.00
65997;BME280;52765;52.258;21.052;2022-12-07T09:55:29;99746.50;;;3.26;100.00
65997;BME280;52765;52.258;21.052;2022-12-07T09:57:57;99749.50;;;3.21;100.00
65997;BME280;52765;52.258;21.052;2022-12-07T10:00:24;99747.66;;;3.33;100.00
65997;BME280;52765;52.258;21.052;2022-12-07T10:02:55;99749.25;;;3.36;100.00
65997;BME280;52765;52.258;21.052;2022-12-07T10:05:28;99746.59;;;3.24;100.00
65997;BME280;52765;52.258;21.052;2022-12-07T10:07:58;99748.31;;;3.25;100.00
65997;BME280;52765;52.258;21.052;2022-12-07T10:10:31;99746.50;;;3.26;100.00
65997;BME280;52765;52.258;21.052;2022-12-07T10:13:05;99723.38;;;3.26;99.70
65997;BME280;52765;52.258;21.052;2022-12-07T10:15:54;99742.09;;;3.36;99.74
65997;BME280;52765;52.258;21.052;2022-12-07T10:18:42;99745.31;;;3.51;98.80
65997;BME280;52765;52.258;21.052;2022-12-07T10:21:20;99726.31;;;3.56;98.62
65997;BME280;52765;52.258;21.052;2022-12-07T10:26:34;99733.59;;;3.54;97.20
65997;BME280;52765;52.258;21.052;2022-12-07T10:29:12;99732.00;;;3.51;98.97
65997;BME280;52765;52.258;21.052;2022-12-07T10:31:40;99736.50;;;3.50;99.13
65997;BME280;52765;52.258;21.052;2022-12-07T10:34:22;99726.19;;;3.57;98.22
65997;BME280;52765;52.258;21.052;2022-12-07T10:36:53;99727.25;;;3.55;97.06
65997;BME280;52765;52.258;21.052;2022-12-07T10:39:25;99713.38;;;3.51;96.88
65997;BME280;52765;52.258;21.052;2022-12-07T10:41:58;99737.47;;;3.49;95.95
65997;BME280;52765;52.258;21.052;2022-12-07T10:44:30;99729.25;;;3.41;96.06
65997;BME280;52765;52.258;21.052;2022-12-07T10:47:18;99727.34;;;3.43;96.55
65997;BME280;52765;52.258;21.052;2022-12-07T10:49:53;99731.44;;;3.36;97.24
65997;BME280;52765;52.258;21.052;2022-12-07T11:06:41;99727.16;;;3.56;97.27
65997;BME280;52765;52.258;21.052;2022-12-07T11:15:10;99723.81;;;3.75;95.81
65997;BME280;52765;52.258;21.052;2022-12-07T11:18:06;99727.47;;;3.63;96.11
65997;BME280;52765;52.258;21.052;2022-12-07T11:32:25;99716.63;;;3.55;97.56
65997;BME280;52765;52.258;21.052;2022-12-07T11:37:49;99723.53;;;3.57;98.06
65997;BME280;52765;52.258;21.052;2022-12-07T11:40:26;99721.19;;;3.64;97.11
65997;BME280;52765;52.258;21.052;2022-12-07T11:45:41;99721.78;;;3.67;97.35
65997;BME280;52765;52.258;21.052;2022-12-07T11:48:21;99709.78;;;3.73;96.25
65997;BME280;52765;52.258;21.052;2022-12-07T11:50:51;99710.53;;;3.64;97.43
65997;BME280;52765;52.258;21.052;2022-12-07T11:53:52;99712.28;;;3.75;96.51
65997;BME280;52765;52.258;21.052;2022-12-07T11:56:22;99710.38;;;3.77;96.15
65997;BME280;52765;52.258;21.052;2022-12-07T11:58:57;99706.31;;;3.82;96.77
65997;BME280;52765;52.258;21.052;2022-12-07T12:06:24;99708.56;;;3.98;96.14
65997;BME280;52765;52.258;21.052;2022-12-07T12:16:42;99691.44;;;4.22;92.92
65997;BME280;52765;52.258;21.052;2022-12-07T12:21:49;99683.75;;;4.07;94.34
65997;BME280;52765;52.258;21.052;2022-12-07T12:24:23;99689.03;;;3.98;95.73
65997;BME280;52765;52.258;21.052;2022-12-07T12:26:53;99684.75;;;3.85;96.79
65997;BME280;52765;52.258;21.052;2022-12-07T12:29:37;99687.81;;;3.81;97.62
65997;BME280;52765;52.258;21.052;2022-12-07T12:32:07;99679.28;;;3.66;98.97
65997;BME280;52765;52.258;21.052;2022-12-07T12:42:58;99683.19;;;3.83;99.60
65997;BME280;52765;52.258;21.052;2022-12-07T12:45:27;99681.03;;;3.98;99.19
65997;BME280;52765;52.258;21.052;2022-12-07T12:48:04;99678.13;;;4.01;97.96
65997;BME280;52765;52.258;21.052;2022-12-07T12:50:37;99673.34;;;4.04;98.20
65997;BME280;52765;52.258;21.052;2022-12-07T12:55:49;99667.75;;;4.07;96.59
65997;BME280;52765;52.258;21.052;2022-12-07T13:03:55;99660.13;;;3.93;97.54
65997;BME280;52765;52.258;21.052;2022-12-07T13:08:51;99662.19;;;3.89;95.24
65997;BME280;52765;52.258;21.052;2022-12-07T13:11:32;99678.50;;;3.96;96.02
65997;BME280;52765;52.258;21.052;2022-12-07T13:17:07;99665.41;;;3.83;96.21
65997;BME280;52765;52.258;21.052;2022-12-07T13:27:35;99659.28;;;3.72;95.20
65997;BME280;52765;52.258;21.052;2022-12-07T13:30:18;99657.28;;;3.85;94.96
65997;BME280;52765;52.258;21.052;2022-12-07T13:32:54;99661.81;;;3.73;94.26
65997;BME280;52765;52.258;21.052;2022-12-07T13:35:35;99662.34;;;3.67;94.79
65997;BME280;52765;52.258;21.052;2022-12-07T13:38:25;99658.50;;;3.60;96.40
65997;BME280;52765;52.258;21.052;2022-12-07T13:41:15;99668.16;;;3.61;96.25
65997;BME280;52765;52.258;21.052;2022-12-07T13:43:49;99662.97;;;3.59;96.38
65997;BME280;52765;52.258;21.052;2022-12-07T13:46:14;99683.91;;;3.64;96.50
65997;BME280;52765;52.258;21.052;2022-12-07T13:48:51;99666.09;;;3.64;96.82
65997;BME280;52765;52.258;21.052;2022-12-07T13:51:21;99681.06;;;3.77;96.65
65997;BME280;52765;52.258;21.052;2022-12-07T13:54:11;99668.28;;;3.59;97.33
65997;BME280;52765;52.258;21.052;2022-12-07T13:56:37;99676.41;;;3.58;98.50
65997;BME280;52765;52.258;21.052;2022-12-07T13:59:10;99668.56;;;3.56;97.56
65997;BME280;52765;52.258;21.052;2022-12-07T14:01:38;99671.50;;;3.53;98.29
65997;BME280;52765;52.258;21.052;2022-12-07T14:06:52;99666.28;;;3.51;99.37
65997;BME280;52765;52.258;21.052;2022-12-07T14:09:23;99671.63;;;3.51;98.93
65997;BME280;52765;52.258;21.052;2022-12-07T14:11:50;99671.00;;;3.48;100.00
65997;BME280;52765;52.258;21.052;2022-12-07T14:14:29;99677.25;;;3.37;100.00
65997;BME280;52765;52.258;21.052;2022-12-07T14:16:57;99683.66;;;3.34;100.00
65997;BME280;52765;52.258;21.052;2022-12-07T14:19:51;99662.88;;;3.28;100.00
65997;BME280;52765;52.258;21.052;2022-12-07T14:22:27;99672.88;;;3.36;100.00
65997;BME280;52765;52.258;21.052;2022-12-07T14:27:38;99686.59;;;3.31;100.00
65997;BME280;52765;52.258;21.052;2022-12-07T14:30:05;99683.84;;;3.22;99.27
65997;BME280;52765;52.258;21.052;2022-12-07T14:32:31;99678.38;;;3.23;100.00
65997;BME280;52765;52.258;21.052;2022-12-07T14:35:23;99676.56;;;3.24;100.00
65997;BME280;52765;52.258;21.052;2022-12-07T14:37:49;99679.34;;;3.22;99.27
65997;BME280;52765;52.258;21.052;2022-12-07T14:40:28;99680.59;;;3.18;98.79
65997;BME280;52765;52.258;21.052;2022-12-07T14:43:00;99677.78;;;3.20;99.49
65997;BME280;52765;52.258;21.052;2022-12-07T14:45:27;99686.38;;;3.23;99.08
65997;BME280;52765;52.258;21.052;2022-12-07T14:47:52;99688.91;;;3.25;99.05
65997;BME280;52765;52.258;21.052;2022-12-07T14:50:19;99684.44;;;3.25;98.52
65997;BME280;52765;52.258;21.052;2022-12-07T14:52:52;99677.06;;;3.18;98.67
65997;BME280;52765;52.258;21.052;2022-12-07T14:55:26;99668.59;;;3.12;99.41
65997;BME280;52765;52.258;21.052;2022-12-07T14:57:52;99676.97;;;3.08;98.37
65997;BME280;52765;52.258;21.052;2022-12-07T15:00:20;99676.00;;;3.09;99.23
65997;BME280;52765;52.258;21.052;2022-12-07T15:02:55;99687.00;;;3.15;99.47
65997;BME280;52765;52.258;21.052;2022-12-07T15:05:20;99688.41;;;3.20;99.35